Lake Placid, NY (12946)

3:50 PM EST on February 06, 2016 (GMT -0500)
Intervale Lowlands | | Change Station
CLOSE
Current Station
Personal Weather Station
Location: Lake Placid, NY
Elevation: 1680 ft
Nearby Weather Stations

Elev 1680 ft 44.27 °N, 73.95 °W | Updated 8 seconds ago

Overcast
Overcast
28.8 °F
Feels Like 29 °F
N
2.0
Wind Variable Wind from ESE
Gusts 7.0 mph

Today
High -- | Low -- °F
--% Chance of Precip.
Yesterday
High -- | Low -- °F
Precip. -- in
Pressure 30.04 in
Visibility 1.8 miles
Clouds Mostly Cloudy 2300 ft
Overcast 3000 ft
Windchill 29 °F
Dew Point 28 °F
Humidity 94%
Rainfall 0.00 in
Snow Depth Not available.
7:08 AM 5:11 PM
Waning Crescent, 4% visible
SPECI KSLK 062028Z AUTO 23012G16KT 1 3/4SM -SN BKN023 OVC030 M02/M05 A3004 RMK AO2 SNB03 P0000 T10221050
Pressure 30.04 in
Visibility 1.8 miles
Clouds Mostly Cloudy 2300 ft
Overcast 3000 ft
Windchill 29 °F
Dew Point 28 °F
Humidity 94%
Rainfall 0.00 in
Snow Depth Not available.
7:08 AM 5:11 PM
Waning Crescent, 4% visible
SPECI KSLK 062028Z AUTO 23012G16KT 1 3/4SM -SN BKN023 OVC030 M02/M05 A3004 RMK AO2 SNB03 P0000 T10221050

10-Day Weather Forecast

Almanac

Astronomy

Feb. 06, 2016 Rise Set
Actual Time
Civil Twilight
Nautical Twilight
Astronomical Twilight
Moon
Length of Visible Light
Length of Day
Tomorrow will be .
, % of the Moon is Illuminated

Today's Extremes

State Highs State Lows

Community

WunderPhotos

Upload Photos

1,891,046 photos uploaded!

WunderBlog® & News

Nearby

Air Quality

  Air Quality AQ Index Pollutant
Not available.

Snow Depth

Station Depth Elevation

Earthquake Activity

City Distance Mag. Time & Date
Minimum magnitude displayed is 2.5.

Coastal Water Temperatures

Place Temperature

Stations

Nearby Weather Stations

Station Location Temp. Windchill Dew Point Humidity Wind Precip. Elev Updated Type
                   

Watches & Warnings

There are currently no watches in effect.